UPSVAC Airport Information Service

Baltimore Washington International Airport

ICAO: KBWI Country: United States
Latitude: 39.1754 Longitude: -76.6683
Latest Arrival : UPS401 (KSDF-KBWI) Latest Departure : UPS1534 (KBWI-KSDF)


WX CaptureLIVE
Data provided by noaa.gov | Fetched at 16:01:21

METAR : KBWI 191454Z 02006KT 10SM FEW120 FEW250 25/13 A3020 RMK AO2 SLP225 T02500133 51012

TAF : KBWI 191458Z 1915/2018 02006KT P6SM FEW120 FM192200 07003KT P6SM SKC FM200400 09003KT P6SM SKC


Runway Data for KBWI
Data provided by openaviationdata.com

Runway ID Mag Var Hdg Length Elevation Surface ILS Freq ILS Id ILS Slope
4 -11 44° 6002 ft 146 ft Asphalt -- -- --
10 -11 105° 10489 ft 146 ft Asphalt 109.7 IBAL 3
15L -11 155° 5000 ft 146 ft Asphalt 111.95 IUQC 3
15R -11 155° 9503 ft 146 ft Asphalt 111.7 IFND 3
22 -11 224° 6002 ft 146 ft Asphalt -- -- --
28 -11 285° 10489 ft 146 ft Asphalt 109.7 IOEH 3
33L -11 335° 9503 ft 146 ft Asphalt 111.7 IRUX 3
33R -11 335° 5000 ft 146 ft Asphalt 111.95 IBWI 3

Baltimore Washington International Airport, United States
Use only for reference purposes



Not for navigational purposes.